Time;durP1;ratioP1;P1;durP2;ratioP2;P2;SDS_P1;SDS_P2;PMS_P1;PMS_P2;Temp;Humidity;BMP_temperature;BMP_pressure;BME280_temperature;BME280_humidity;BME280_pressure;Samples;Min_cycle;Max_cycle;Signal;HPM_P1;HPM_P2
2022/09/20 00:01:21;;;;;;;6.83;4.40;;;8.40;99.90;;;;;;5015502;28;20465;-66
2022/09/20 00:03:52;;;;;;;4.30;3.90;;;8.40;99.90;;;;;;5022523;28;20477;-65
2022/09/20 00:06:21;;;;;;;4.50;3.67;;;8.40;99.90;;;;;;5016623;28;20473;-66
2022/09/20 00:08:47;;;;;;;7.83;3.50;;;8.40;99.90;;;;;;5025336;28;20441;-65
2022/09/20 00:11:22;;;;;;;6.27;3.63;;;8.50;99.90;;;;;;5020793;28;20485;-65
2022/09/20 00:13:50;;;;;;;5.60;3.60;;;8.50;99.90;;;;;;5021234;28;20569;-66
2022/09/20 00:16:20;;;;;;;3.63;3.00;;;8.50;99.90;;;;;;5019877;28;20444;-66
2022/09/20 00:18:54;;;;;;;5.37;3.53;;;8.50;99.90;;;;;;5016913;28;20430;-66
2022/09/20 00:21:25;;;;;;;5.33;3.43;;;8.50;99.90;;;;;;5020589;28;21591;-66
2022/09/20 00:23:52;;;;;;;4.37;3.43;;;8.50;99.90;;;;;;5017491;28;20453;-66
2022/09/20 00:26:18;;;;;;;4.10;3.20;;;8.40;99.90;;;;;;5013477;28;20986;-66
2022/09/20 00:28:45;;;;;;;4.07;3.30;;;8.40;99.90;;;;;;5010629;28;20441;-65
2022/09/20 00:31:12;;;;;;;5.50;3.00;;;8.40;99.90;;;;;;5020317;28;20478;-66
2022/09/20 00:36:22;;;;;;;4.70;2.90;;;8.40;99.90;;;;;;5022416;28;20487;-66
2022/09/20 00:38:48;;;;;;;12.70;4.20;;;9.70;99.90;;;;;;5012696;28;20970;-66
2022/09/20 00:41:13;;;;;;;4.53;2.97;;;8.40;99.90;;;;;;5014108;28;20183;-66
2022/09/20 00:43:42;;;;;;;5.60;4.03;;;8.40;99.90;;;;;;5021485;28;20679;-66
2022/09/20 00:46:23;;;;;;;8.93;4.10;;;8.30;99.90;;;;;;5016463;28;20209;-65
2022/09/20 00:48:52;;;;;;;8.00;3.60;;;8.30;99.90;;;;;;5013813;28;20803;-66
2022/09/20 00:51:25;;;;;;;8.40;3.20;;;8.20;99.90;;;;;;5019837;28;20438;-66
2022/09/20 00:53:53;;;;;;;5.33;3.10;;;8.20;99.90;;;;;;5014555;28;20502;-66
2022/09/20 00:56:23;;;;;;;7.60;3.40;;;8.10;99.90;;;;;;5016954;28;20854;-66
2022/09/20 00:59:06;;;;;;;4.87;3.73;;;8.10;99.90;;;;;;5023980;28;20519;-66
2022/09/20 01:01:32;;;;;;;7.60;3.53;;;8.10;99.90;;;;;;5013252;28;20796;-66
2022/09/20 01:03:58;;;;;;;4.77;3.30;;;8.10;99.90;;;;;;5020624;28;20547;-66
2022/09/20 01:06:24;;;;;;;3.70;3.10;;;8.10;99.90;;;;;;5015734;28;20486;-65
2022/09/20 01:08:51;;;;;;;6.97;2.73;;;8.10;99.90;;;;;;5022416;28;20440;-66
2022/09/20 01:11:17;;;;;;;4.07;3.40;;;8.10;99.90;;;;;;5010426;28;20548;-66
2022/09/20 01:13:43;;;;;;;5.17;4.10;;;8.10;99.90;;;;;;5021358;28;20843;-66
2022/09/20 01:16:11;;;;;;;4.17;3.20;;;8.10;99.90;;;;;;5017275;28;20433;-66
2022/09/20 01:18:38;;;;;;;4.03;3.07;;;8.10;99.90;;;;;;5023417;28;20440;-66
2022/09/20 01:21:05;;;;;;;7.87;4.10;;;8.00;99.90;;;;;;5016281;28;20439;-66
2022/09/20 01:23:42;;;;;;;5.73;3.47;;;8.00;99.90;;;;;;5020641;28;20451;-66
2022/09/20 01:26:34;;;;;;;3.50;3.00;;;8.00;99.90;;;;;;5013953;28;20464;-66
2022/09/20 01:29:33;;;;;;;5.23;3.47;;;8.10;99.90;;;;;;5014840;28;20914;-66
2022/09/20 01:32:02;;;;;;;7.53;3.40;;;8.10;99.90;;;;;;5004070;28;20444;-65
2022/09/20 01:34:45;;;;;;;4.93;2.67;;;8.10;99.90;;;;;;5022920;28;20453;-66
2022/09/20 01:37:26;;;;;;;8.23;4.17;;;8.20;99.90;;;;;;5018304;28;20476;-66
2022/09/20 01:40:19;;;;;;;4.27;3.20;;;8.30;99.90;;;;;;5012093;28;21133;-66
2022/09/20 01:43:14;;;;;;;4.20;3.50;;;8.20;99.90;;;;;;5017212;28;20441;-65
2022/09/20 01:45:46;;;;;;;8.10;4.07;;;8.10;99.90;;;;;;5015153;28;20457;-66
2022/09/20 01:48:37;;;;;;;5.73;3.73;;;8.10;99.90;;;;;;5014541;28;20469;-65
2022/09/20 01:51:30;;;;;;;9.00;3.60;;;8.10;99.90;;;;;;5009040;28;20440;-66
2022/09/20 01:54:10;;;;;;;7.13;3.83;;;8.00;99.90;;;;;;5018204;28;20563;-66
2022/09/20 01:56:59;;;;;;;5.20;3.60;;;8.00;99.90;;;;;;5017364;28;20464;-66
2022/09/20 01:59:47;;;;;;;8.70;3.53;;;8.00;99.90;;;;;;5008131;28;20515;-66
2022/09/20 02:02:23;;;;;;;5.23;3.40;;;8.00;99.90;;;;;;5015543;28;20441;-66
2022/09/20 02:05:18;;;;;;;6.53;3.33;;;8.00;99.90;;;;;;5025153;28;20460;-66
2022/09/20 02:08:25;;;;;;;4.63;3.23;;;8.00;99.90;;;;;;5016104;28;20473;-66
2022/09/20 02:10:57;;;;;;;7.00;4.37;;;8.00;99.90;;;;;;5018167;28;20525;-66
2022/09/20 02:13:31;;;;;;;7.47;3.10;;;8.00;99.90;;;;;;5020283;28;20977;-66
2022/09/20 02:16:18;;;;;;;8.00;3.97;;;8.00;99.90;;;;;;5028577;28;20458;-66
2022/09/20 02:18:55;;;;;;;6.53;4.17;;;8.10;99.90;;;;;;5011606;28;21065;-66
2022/09/20 02:21:37;;;;;;;4.10;3.80;;;8.20;99.90;;;;;;5016815;28;20448;-66
2022/09/20 02:24:33;;;;;;;6.23;3.30;;;8.20;99.90;;;;;;5007743;28;20467;-66
2022/09/20 02:27:23;;;;;;;3.67;3.37;;;8.20;99.90;;;;;;5018656;28;20493;-66
2022/09/20 02:30:06;;;;;;;7.37;5.03;;;8.20;99.90;;;;;;5009953;28;20520;-66
2022/09/20 02:32:32;;;;;;;8.33;3.70;;;8.20;99.90;;;;;;5021201;28;20964;-66
2022/09/20 02:35:12;;;;;;;4.00;3.60;;;8.20;99.90;;;;;;5023380;28;20460;-65
2022/09/20 02:38:18;;;;;;;4.53;3.57;;;8.30;99.90;;;;;;5016548;28;20273;-66
2022/09/20 02:41:03;;;;;;;5.03;3.40;;;8.30;99.90;;;;;;5012935;28;20473;-65
2022/09/20 02:43:44;;;;;;;2.90;2.60;;;8.30;99.90;;;;;;5029544;28;20966;-65
2022/09/20 02:46:27;;;;;;;5.30;4.07;;;8.30;99.90;;;;;;5022586;28;20460;-66
2022/09/20 02:49:07;;;;;;;5.67;3.13;;;8.40;99.90;;;;;;5020031;28;20434;-66
2022/09/20 02:51:40;;;;;;;5.27;3.23;;;8.40;99.90;;;;;;5009387;28;20874;-66
2022/09/20 02:54:29;;;;;;;4.47;3.40;;;8.50;99.90;;;;;;5009339;28;20503;-66
2022/09/20 02:57:20;;;;;;;7.30;3.10;;;8.60;99.90;;;;;;5012691;28;20456;-66
2022/09/20 02:59:51;;;;;;;6.07;2.93;;;8.60;99.90;;;;;;5021777;28;20429;-66
2022/09/20 03:02:50;;;;;;;7.77;3.80;;;8.60;99.90;;;;;;5018819;28;20459;-66
2022/09/20 03:05:42;;;;;;;5.93;3.97;;;8.70;99.90;;;;;;5003176;28;20918;-66
2022/09/20 03:08:30;;;;;;;6.13;4.13;;;8.80;99.90;;;;;;5010837;28;20432;-66
2022/09/20 03:11:04;;;;;;;5.70;3.20;;;8.80;99.90;;;;;;5015411;28;20445;-66
2022/09/20 03:13:42;;;;;;;5.93;3.90;;;8.80;99.90;;;;;;5016797;28;20457;-66
2022/09/20 03:16:11;;;;;;;9.00;3.90;;;8.80;99.90;;;;;;5005823;28;20491;-66
2022/09/20 03:19:14;;;;;;;6.50;4.47;;;8.70;99.90;;;;;;5019668;28;20797;-66
2022/09/20 03:22:04;;;;;;;5.43;3.23;;;8.80;99.90;;;;;;5008976;28;20441;-66
2022/09/20 03:24:54;;;;;;;5.40;3.53;;;8.70;99.90;;;;;;5019240;28;20461;-66
2022/09/20 03:27:29;;;;;;;5.03;3.40;;;8.70;99.90;;;;;;5002787;28;20436;-66
2022/09/20 03:30:15;;;;;;;6.33;3.23;;;8.70;99.90;;;;;;5023969;28;20436;-66
2022/09/20 03:33:24;;;;;;;5.57;3.10;;;8.60;99.90;;;;;;5026214;28;20512;-65
2022/09/20 03:36:27;;;;;;;8.50;3.17;;;8.70;99.90;;;;;;4970288;28;20527;-66
2022/09/20 03:39:27;;;;;;;4.53;3.60;;;8.60;99.90;;;;;;4975818;28;20444;-66
2022/09/20 03:42:15;;;;;;;4.10;3.80;;;8.70;99.90;;;;;;5017993;28;20453;-66
2022/09/20 03:45:18;;;;;;;3.57;3.27;;;8.70;99.90;;;;;;5015163;28;20828;-66
2022/09/20 03:48:19;;;;;;;13.23;5.30;;;8.60;99.90;;;;;;5008621;28;20488;-66
2022/09/20 03:50:54;;;;;;;8.43;5.57;;;8.60;99.90;;;;;;5021326;28;20514;-66
2022/09/20 03:53:46;;;;;;;4.93;4.53;;;8.50;99.90;;;;;;5023361;28;20420;-65
2022/09/20 03:56:33;;;;;;;6.93;5.20;;;8.50;99.90;;;;;;5011468;28;20440;-66
2022/09/20 03:59:21;;;;;;;4.47;3.40;;;8.60;99.90;;;;;;5020214;28;20807;-66
2022/09/20 04:02:03;;;;;;;4.50;3.70;;;8.60;99.90;;;;;;5013978;28;20442;-66
2022/09/20 04:04:39;;;;;;;6.77;3.30;;;8.70;99.90;;;;;;5018703;28;20461;-66
2022/09/20 04:07:17;;;;;;;5.03;3.77;;;8.80;99.90;;;;;;5013620;28;20839;-66
2022/09/20 04:10:02;;;;;;;3.23;2.93;;;8.80;99.90;;;;;;5016231;28;20469;-66
2022/09/20 04:12:53;;;;;;;10.27;4.00;;;8.90;99.90;;;;;;5017178;28;20959;-66
2022/09/20 04:15:42;;;;;;;7.03;3.50;;;8.80;99.90;;;;;;5016651;28;20829;-66
2022/09/20 04:18:36;;;;;;;4.40;3.37;;;8.90;99.90;;;;;;5016171;28;20422;-66
2022/09/20 04:21:27;;;;;;;7.03;3.97;;;8.80;99.90;;;;;;5007925;28;20429;-66
2022/09/20 04:24:20;;;;;;;7.13;4.00;;;8.90;99.90;;;;;;5023243;28;20540;-66
2022/09/20 04:26:50;;;;;;;7.03;3.70;;;8.90;99.90;;;;;;5012965;28;20466;-66
2022/09/20 04:29:50;;;;;;;5.87;3.43;;;8.90;99.90;;;;;;5018560;28;20433;-66
2022/09/20 04:32:28;;;;;;;8.03;3.63;;;8.90;99.90;;;;;;5019878;28;20454;-66
2022/09/20 04:38:04;;;;;;;9.20;4.90;;;9.00;99.90;;;;;;5011158;28;20968;-66
2022/09/20 04:41:04;;;;;;;11.77;4.57;;;9.00;99.90;;;;;;5019404;28;20430;-66
2022/09/20 04:43:52;;;;;;;8.83;4.40;;;9.10;99.90;;;;;;5013785;28;20492;-66
2022/09/20 04:46:55;;;;;;;7.53;4.17;;;9.00;99.90;;;;;;5017503;28;20468;-66
2022/09/20 04:49:39;;;;;;;4.30;3.90;;;9.00;99.90;;;;;;5015805;28;20440;-66
2022/09/20 04:52:37;;;;;;;6.80;3.50;;;9.00;99.90;;;;;;5007865;28;20440;-66
2022/09/20 04:55:40;;;;;;;5.43;3.40;;;9.00;99.90;;;;;;4988509;28;20474;-66
2022/09/20 04:58:33;;;;;;;5.40;3.53;;;9.00;99.90;;;;;;5006638;28;20467;-66
2022/09/20 05:01:15;;;;;;;14.20;5.53;;;9.00;99.90;;;;;;5012842;28;20434;-66
2022/09/20 05:04:02;;;;;;;10.97;4.57;;;9.10;99.90;;;;;;5014617;28;20880;-66
2022/09/20 05:06:42;;;;;;;7.17;5.13;;;9.10;99.90;;;;;;5015746;28;20967;-66
2022/09/20 05:09:41;;;;;;;5.30;4.37;;;9.20;99.90;;;;;;5022689;28;20460;-65
2022/09/20 05:12:15;;;;;;;9.53;7.30;;;9.10;99.90;;;;;;5006860;28;20484;-66
2022/09/20 05:14:50;;;;;;;9.07;8.27;;;9.00;99.90;;;;;;5005358;28;20460;-66
2022/09/20 05:17:43;;;;;;;11.13;6.10;;;9.10;99.90;;;;;;5009911;28;20433;-66
2022/09/20 05:20:46;;;;;;;6.43;5.83;;;9.10;99.90;;;;;;5014924;28;20483;-66
2022/09/20 05:23:50;;;;;;;10.17;6.17;;;9.10;99.90;;;;;;5013302;28;20516;-66
2022/09/20 05:26:49;;;;;;;6.17;5.57;;;9.10;99.90;;;;;;4990255;28;20632;-66
2022/09/20 05:29:27;;;;;;;6.60;6.00;;;9.10;99.90;;;;;;5010084;28;20507;-66
2022/09/20 05:32:17;;;;;;;8.73;5.10;;;9.10;99.90;;;;;;5017429;28;20841;-66
2022/09/20 05:34:51;;;;;;;8.03;6.10;;;9.10;99.90;;;;;;5012737;28;20462;-66
2022/09/20 05:37:20;;;;;;;5.83;5.23;;;9.10;99.90;;;;;;5019366;28;20448;-66
2022/09/20 05:39:56;;;;;;;13.03;6.27;;;9.10;99.90;;;;;;5013210;28;20528;-66
2022/09/20 05:42:38;;;;;;;10.63;5.70;;;9.10;99.90;;;;;;5015435;28;20449;-66
2022/09/20 05:45:31;;;;;;;12.70;6.73;;;9.00;99.90;;;;;;5002239;28;20497;-66
2022/09/20 05:48:11;;;;;;;6.57;5.30;;;9.10;99.90;;;;;;5023372;28;20999;-66
2022/09/20 05:50:59;;;;;;;7.17;5.60;;;9.10;99.90;;;;;;5019816;28;20941;-66
2022/09/20 05:54:00;;;;;;;6.43;5.83;;;9.20;99.90;;;;;;5022566;28;20460;-66
2022/09/20 05:56:45;;;;;;;7.67;5.47;;;9.40;99.90;;;;;;5022705;28;20433;-66
2022/09/20 05:59:19;;;;;;;12.53;6.67;;;9.70;99.90;;;;;;5007419;28;20437;-64
2022/09/20 06:02:20;;;;;;;8.10;5.70;;;9.90;99.90;;;;;;5012808;28;20973;-65
2022/09/20 06:05:09;;;;;;;10.37;6.60;;;10.00;99.90;;;;;;5019571;28;20496;-67
2022/09/20 06:07:47;;;;;;;9.00;6.20;;;10.10;99.90;;;;;;5023574;28;20443;-64
2022/09/20 06:10:40;;;;;;;12.07;6.33;;;10.20;99.90;;;;;;5004017;28;20437;-69
2022/09/20 06:13:23;;;;;;;6.47;5.83;;;10.30;99.90;;;;;;5016490;28;20436;-68
2022/09/20 06:16:00;;;;;;;6.10;5.53;;;10.20;99.90;;;;;;5019602;28;20491;-69
2022/09/20 06:18:59;;;;;;;4.93;4.30;;;10.30;99.90;;;;;;5016477;28;20441;-67
2022/09/20 06:21:54;;;;;;;9.23;4.23;;;10.30;99.90;;;;;;5004668;28;20433;-67
2022/09/20 06:24:35;;;;;;;4.43;4.00;;;10.50;99.90;;;;;;5013831;28;20614;-67
2022/09/20 06:27:07;;;;;;;4.97;4.50;;;10.60;99.90;;;;;;5010999;28;20468;-66
2022/09/20 06:29:37;;;;;;;5.23;4.63;;;10.80;99.90;;;;;;5016774;28;20487;-67
2022/09/20 06:32:03;;;;;;;12.80;5.60;;;10.90;99.90;;;;;;5013827;28;20619;-66
2022/09/20 06:34:29;;;;;;;8.77;4.53;;;11.00;99.90;;;;;;5022143;28;20552;-67
2022/09/20 06:42:59;;;;;;;7.73;4.63;;;11.10;99.90;;;;;;5012015;28;20902;-66
2022/09/20 06:45:25;;;;;;;6.40;5.80;;;11.20;99.90;;;;;;5009293;28;20560;-67
2022/09/20 06:47:50;;;;;;;5.10;4.47;;;11.40;99.90;;;;;;5014481;28;20183;-67
2022/09/20 06:50:17;;;;;;;9.83;4.33;;;11.40;99.90;;;;;;5012299;28;20269;-67
2022/09/20 06:52:44;;;;;;;11.50;4.20;;;11.20;99.90;;;;;;5009477;28;20645;-66
2022/09/20 06:55:19;;;;;;;8.53;5.07;;;11.20;99.90;;;;;;4989343;28;1022420;-67
2022/09/20 06:57:45;;;;;;;5.47;4.93;;;11.20;99.90;;;;;;5019473;28;20189;-66
2022/09/20 07:00:14;;;;;;;4.73;4.33;;;11.30;99.90;;;;;;5018985;28;20446;-67
2022/09/20 07:02:41;;;;;;;7.37;4.43;;;11.40;99.90;;;;;;5021048;28;20183;-66
2022/09/20 07:05:14;;;;;;;5.70;3.20;;;11.30;99.90;;;;;;5023948;28;20514;-68
2022/09/20 07:07:39;;;;;;;4.00;3.60;;;11.30;99.90;;;;;;5018342;28;20432;-67
2022/09/20 07:10:05;;;;;;;4.93;3.97;;;11.30;99.90;;;;;;5020035;28;20512;-66
2022/09/20 07:12:32;;;;;;;11.37;8.97;;;11.40;99.90;;;;;;5020060;28;20607;-66
2022/09/20 07:14:58;;;;;;;11.10;6.57;;;11.70;99.90;;;;;;5019398;28;20199;-67
2022/09/20 07:17:24;;;;;;;4.83;3.90;;;12.00;99.90;;;;;;5017931;28;20809;-67
2022/09/20 07:19:50;;;;;;;5.33;3.87;;;12.10;99.90;;;;;;5015841;28;20183;-67
2022/09/20 07:22:15;;;;;;;6.40;4.20;;;12.10;99.90;;;;;;5015531;28;20190;-67
2022/09/20 07:24:43;;;;;;;7.00;4.30;;;12.20;99.90;;;;;;5025682;28;21139;-67
2022/09/20 07:27:10;;;;;;;8.60;3.83;;;12.30;99.90;;;;;;5007538;28;20210;-66
2022/09/20 07:29:36;;;;;;;7.60;4.03;;;12.50;99.90;;;;;;5018990;28;20429;-66
2022/09/20 07:32:01;;;;;;;6.93;4.00;;;12.70;99.90;;;;;;5024626;28;20444;-67
2022/09/20 07:34:28;;;;;;;6.77;3.50;;;12.80;99.90;;;;;;5017585;28;20282;-67
2022/09/20 07:36:56;;;;;;;4.90;3.97;;;12.80;99.90;;;;;;5022145;28;20269;-67
2022/09/20 07:39:21;;;;;;;6.53;4.00;;;13.00;99.90;;;;;;5012414;28;20452;-66
2022/09/20 07:41:50;;;;;;;6.50;3.70;;;13.30;99.90;;;;;;5021932;28;20449;-66
2022/09/20 07:44:26;;;;;;;7.97;3.43;;;13.40;99.90;;;;;;5020013;28;20203;-67
2022/09/20 07:46:54;;;;;;;3.93;2.73;;;13.70;99.90;;;;;;5016094;28;20959;-66
2022/09/20 07:49:20;;;;;;;9.00;3.30;;;13.80;99.90;;;;;;5016796;28;20950;-67
2022/09/20 07:51:47;;;;;;;6.63;3.30;;;13.80;99.90;;;;;;5022879;28;20476;-67
2022/09/20 07:54:12;;;;;;;8.80;3.30;;;13.70;99.90;;;;;;5015271;28;20487;-67
2022/09/20 07:56:38;;;;;;;6.67;3.80;;;13.80;99.90;;;;;;5015023;28;20523;-67
2022/09/20 07:59:04;;;;;;;6.70;3.60;;;13.40;99.90;;;;;;5024264;28;20273;-66
2022/09/20 08:01:30;;;;;;;8.00;4.13;;;13.60;99.90;;;;;;5019953;28;20189;-67
2022/09/20 08:03:56;;;;;;;11.80;5.00;;;13.90;99.90;;;;;;5018399;28;20519;-67
2022/09/20 08:06:22;;;;;;;10.47;4.03;;;14.10;99.90;;;;;;5005384;28;20214;-67
2022/09/20 08:08:48;;;;;;;8.23;2.87;;;14.20;99.90;;;;;;5020367;28;21252;-67
2022/09/20 08:11:17;;;;;;;8.47;3.07;;;14.10;99.90;;;;;;5010290;28;20428;-67
2022/09/20 08:13:46;;;;;;;8.23;3.27;;;14.50;99.90;;;;;;5010164;28;20846;-66
2022/09/20 08:16:13;;;;;;;8.33;5.50;;;15.10;99.90;;;;;;5002270;28;20879;-66
2022/09/20 08:18:43;;;;;;;4.63;2.87;;;15.60;99.90;;;;;;5014482;28;20473;-67
2022/09/20 08:21:10;;;;;;;3.80;3.23;;;15.90;99.90;;;;;;5016260;28;20820;-66
2022/09/20 08:23:37;;;;;;;9.53;2.80;;;15.40;99.90;;;;;;5012959;28;20484;-67
2022/09/20 08:26:04;;;;;;;4.33;2.43;;;15.50;99.90;;;;;;5018490;28;20514;-67
2022/09/20 08:28:30;;;;;;;12.73;2.73;;;15.90;99.90;;;;;;5018251;28;20443;-66
2022/09/20 08:31:14;;;;;;;8.27;2.70;;;16.20;99.90;;;;;;5019773;28;20429;-67
2022/09/20 08:33:40;;;;;;;3.77;2.60;;;16.40;99.90;;;;;;5017087;28;20548;-67
2022/09/20 08:36:09;;;;;;;9.30;3.03;;;16.20;99.90;;;;;;5016287;28;20447;-66
2022/09/20 08:38:35;;;;;;;4.80;2.40;;;16.40;99.90;;;;;;5027876;28;20437;-67
2022/09/20 08:41:09;;;;;;;5.03;2.17;;;16.80;99.90;;;;;;5020226;28;20843;-67
2022/09/20 08:43:50;;;;;;;4.10;2.30;;;16.60;99.90;;;;;;5017761;28;20214;-67
2022/09/20 08:46:18;;;;;;;5.17;2.13;;;17.60;99.90;;;;;;5013810;28;20552;-67
2022/09/20 08:48:45;;;;;;;4.57;2.47;;;19.00;99.90;;;;;;5018707;28;20472;-66
2022/09/20 08:51:14;;;;;;;3.87;2.10;;;19.50;99.90;;;;;;5020321;28;20515;-66
2022/09/20 08:53:54;;;;;;;5.93;2.17;;;19.70;99.90;;;;;;5005276;28;20461;-66
2022/09/20 08:56:21;;;;;;;5.57;2.37;;;19.50;99.90;;;;;;5008754;28;20446;-67
2022/09/20 08:58:47;;;;;;;8.93;2.47;;;19.20;99.90;;;;;;5016343;28;20433;-67
2022/09/20 09:01:20;;;;;;;2.63;2.20;;;19.10;99.90;;;;;;5015423;28;20449;-67
2022/09/20 09:03:46;;;;;;;6.67;2.90;;;19.40;99.60;;;;;;5006957;28;20206;-67
2022/09/20 09:06:16;;;;;;;7.27;2.53;;;18.80;99.10;;;;;;5012404;28;20456;-66
2022/09/20 09:08:43;;;;;;;4.87;2.07;;;18.90;99.90;;;;;;5011116;28;20262;-66
2022/09/20 09:11:14;;;;;;;3.73;2.40;;;18.10;99.90;;;;;;5015657;28;20441;-67
2022/09/20 09:16:56;;;;;;;5.30;1.83;;;17.80;99.90;;;;;;5004430;28;20439;-66
2022/09/20 09:19:43;;;;;;;4.13;2.30;;;17.80;99.90;;;;;;5011369;28;20525;-66
2022/09/20 09:22:09;;;;;;;10.70;2.77;;;17.00;99.90;;;;;;5005775;28;20189;-67
2022/09/20 09:24:35;;;;;;;4.30;2.80;;;16.90;99.90;;;;;;5018606;28;20452;-67
2022/09/20 09:27:15;;;;;;;6.53;2.80;;;16.30;99.90;;;;;;5016373;28;20620;-66
2022/09/20 09:29:55;;;;;;;2.50;2.00;;;16.30;99.90;;;;;;5015162;28;20178;-67
2022/09/20 09:32:31;;;;;;;6.30;2.43;;;17.40;99.90;;;;;;5017898;28;20474;-66
2022/09/20 09:35:28;;;;;;;5.03;2.73;;;19.10;99.90;;;;;;5008812;28;20456;-67
2022/09/20 09:37:57;;;;;;;5.03;2.77;;;21.20;99.90;;;;;;5010115;28;20446;-67
2022/09/20 09:40:24;;;;;;;2.93;2.07;;;22.60;93.50;;;;;;5023657;28;20517;-67
2022/09/20 09:42:52;;;;;;;3.03;1.93;;;22.80;91.50;;;;;;5014548;28;20441;-67
2022/09/20 09:45:37;;;;;;;3.53;1.80;;;24.10;92.60;;;;;;5022262;28;20463;-68
2022/09/20 09:48:23;;;;;;;6.90;2.20;;;24.10;85.10;;;;;;5000031;28;20433;-67
2022/09/20 09:50:50;;;;;;;4.63;1.90;;;23.90;84.00;;;;;;5009581;28;21006;-67
2022/09/20 09:53:21;;;;;;;6.17;5.30;;;24.50;79.00;;;;;;5008606;28;20441;-68
2022/09/20 09:56:07;;;;;;;4.83;1.77;;;24.20;78.00;;;;;;5042919;22;20901;-71
2022/09/20 09:58:57;;;;;;;6.07;2.43;;;22.50;79.40;;;;;;5029453;28;20495;-73
2022/09/20 10:01:41;;;;;;;5.03;2.30;;;21.20;84.20;;;;;;5023337;28;20518;-73
2022/09/20 10:04:26;;;;;;;4.07;2.67;;;19.00;90.50;;;;;;5025801;28;20785;-73
2022/09/20 10:06:57;;;;;;;5.10;1.90;;;17.80;94.30;;;;;;5008356;28;20469;-72
2022/09/20 10:09:53;;;;;;;2.60;1.93;;;17.00;98.00;;;;;;5013848;28;20434;-72
2022/09/20 10:12:34;;;;;;;4.60;2.80;;;16.80;99.90;;;;;;5025263;28;20424;-72
2022/09/20 10:15:36;;;;;;;4.73;2.27;;;16.10;99.90;;;;;;5031229;28;21003;-72
2022/09/20 10:18:22;;;;;;;5.60;2.67;;;16.10;99.90;;;;;;5031275;28;20420;-72
2022/09/20 10:20:58;;;;;;;7.93;2.80;;;16.10;99.90;;;;;;5031297;28;20495;-71
2022/09/20 10:23:58;;;;;;;5.30;2.47;;;16.30;99.90;;;;;;5031182;28;20412;-72
2022/09/20 10:26:31;;;;;;;6.93;2.80;;;16.30;99.90;;;;;;5034509;28;20574;-72
2022/09/20 10:29:07;;;;;;;12.40;3.17;;;15.90;99.90;;;;;;5033904;28;20423;-72
2022/09/20 10:31:36;;;;;;;4.40;2.50;;;16.30;99.90;;;;;;5034527;28;20415;-71
2022/09/20 10:34:38;;;;;;;1.80;1.70;;;16.60;99.90;;;;;;5034514;28;20428;-72
2022/09/20 10:37:14;;;;;;;9.17;2.10;;;16.90;99.90;;;;;;5034430;28;20459;-72
2022/09/20 10:39:40;;;;;;;4.70;2.30;;;17.30;99.90;;;;;;5033609;28;20420;-72
2022/09/20 10:45:33;;;;;;;3.97;2.10;;;17.90;99.90;;;;;;5034139;28;20200;-71
2022/09/20 10:48:07;;;;;;;8.03;2.43;;;18.10;99.90;;;;;;5034088;28;20811;-71
2022/09/20 10:51:05;;;;;;;5.20;1.83;;;17.90;99.90;;;;;;5033571;28;20420;-72
2022/09/20 10:53:48;;;;;;;2.83;2.60;;;17.70;99.90;;;;;;5034181;28;20424;-71
2022/09/20 10:56:38;;;;;;;7.23;2.40;;;17.40;98.60;;;;;;5033896;28;20551;-72
2022/09/20 10:59:22;;;;;;;3.10;2.00;;;16.70;99.90;;;;;;5033399;28;20432;-72
2022/09/20 11:02:19;;;;;;;5.43;3.07;;;16.70;99.90;;;;;;5032609;28;21057;-72
2022/09/20 11:04:51;;;;;;;5.47;2.60;;;16.60;99.90;;;;;;5034016;28;20972;-72
2022/09/20 11:07:30;;;;;;;5.20;2.10;;;16.50;99.90;;;;;;5033793;28;20830;-72
2022/09/20 11:10:19;;;;;;;4.53;2.50;;;16.20;99.90;;;;;;5032932;28;20988;-72
2022/09/20 11:13:09;;;;;;;3.43;1.80;;;16.40;99.90;;;;;;5033309;28;20432;-71
2022/09/20 11:15:42;;;;;;;2.80;1.80;;;16.70;99.90;;;;;;5032138;28;20965;-71
2022/09/20 11:18:13;;;;;;;3.40;2.00;;;17.30;99.90;;;;;;5033467;28;20461;-72
2022/09/20 11:20:48;;;;;;;2.93;2.00;;;19.30;96.90;;;;;;5033600;28;20417;-70
2022/09/20 11:23:26;;;;;;;2.80;1.93;;;22.30;89.80;;;;;;5033598;28;20478;-71
2022/09/20 11:25:57;;;;;;;3.80;2.00;;;24.60;80.50;;;;;;5033235;28;20464;-71
2022/09/20 11:28:29;;;;;;;4.57;2.00;;;26.60;62.80;;;;;;5032600;28;20409;-71
2022/09/20 11:31:24;;;;;;;1.80;1.40;;;26.80;58.90;;;;;;5033526;28;20457;-70
2022/09/20 11:34:01;;;;;;;2.73;1.20;;;25.90;52.80;;;;;;5026250;28;20460;-71
2022/09/20 11:36:44;;;;;;;3.20;1.90;;;23.70;57.00;;;;;;5032556;28;20532;-70
2022/09/20 11:39:45;;;;;;;3.90;2.03;;;24.60;57.40;;;;;;5032832;28;20479;-71
2022/09/20 11:42:16;;;;;;;3.33;1.83;;;25.40;55.20;;;;;;5028737;28;20838;-73
2022/09/20 11:44:42;;;;;;;2.93;1.90;;;24.40;57.30;;;;;;5013421;28;20438;-72
2022/09/20 11:47:10;;;;;;;3.07;2.00;;;22.80;58.20;;;;;;5013187;28;20523;-72
2022/09/20 11:49:45;;;;;;;3.67;2.07;;;21.20;62.10;;;;;;5012798;28;20175;-72
2022/09/20 11:52:10;;;;;;;4.40;2.00;;;20.40;68.00;;;;;;5013256;28;20421;-72
2022/09/20 11:55:13;;;;;;;6.03;2.07;;;19.80;73.60;;;;;;5013055;28;20809;-73
2022/09/20 11:57:39;;;;;;;3.77;2.00;;;19.20;77.90;;;;;;5013002;28;20182;-72
2022/09/20 12:00:09;;;;;;;4.40;2.53;;;18.80;77.50;;;;;;5012473;28;20413;-72
2022/09/20 12:02:48;;;;;;;6.10;2.27;;;18.10;83.60;;;;;;5012935;28;20171;-72
2022/09/20 12:05:36;;;;;;;2.90;2.50;;;17.40;76.70;;;;;;5012896;28;20523;-73
2022/09/20 12:08:07;;;;;;;3.60;2.43;;;17.50;77.00;;;;;;5012986;28;20410;-71
2022/09/20 12:10:37;;;;;;;4.83;2.30;;;17.60;75.70;;;;;;5012261;28;20480;-71
2022/09/20 12:13:06;;;;;;;6.53;2.67;;;17.80;74.70;;;;;;5009800;28;20469;-72
2022/09/20 12:15:38;;;;;;;3.20;2.00;;;18.90;73.70;;;;;;5013567;28;20457;-72
2022/09/20 12:18:24;;;;;;;3.17;2.13;;;20.20;69.50;;;;;;5012753;28;20536;-72
2022/09/20 12:20:51;;;;;;;2.70;2.13;;;21.60;63.50;;;;;;5021856;28;20446;-72
2022/09/20 12:23:39;;;;;;;3.17;1.80;;;21.10;64.00;;;;;;5020261;28;20441;-73
2022/09/20 12:26:12;;;;;;;2.37;2.17;;;20.30;66.50;;;;;;5014539;28;20840;-73
2022/09/20 12:28:40;;;;;;;3.43;1.93;;;20.20;69.10;;;;;;5007861;28;20426;-73
2022/09/20 12:31:20;;;;;;;2.57;2.20;;;21.80;63.50;;;;;;5016659;28;20499;-73
2022/09/20 12:34:12;;;;;;;3.77;2.13;;;23.20;60.30;;;;;;5012180;28;20962;-73
2022/09/20 12:36:54;;;;;;;2.83;1.80;;;24.00;54.60;;;;;;5013179;28;20445;-73
2022/09/20 12:39:32;;;;;;;4.00;2.30;;;25.40;53.30;;;;;;5006134;28;20430;-71
2022/09/20 12:41:59;;;;;;;2.73;1.80;;;25.50;52.10;;;;;;5018622;28;21016;-71
2022/09/20 12:44:42;;;;;;;3.47;2.30;;;26.50;51.40;;;;;;5016438;28;20442;-70
2022/09/20 12:47:11;;;;;;;2.37;2.10;;;29.00;48.60;;;;;;5008507;28;20480;-71
2022/09/20 12:53:02;;;;;;;2.60;2.13;;;26.40;49.30;;;;;;5009995;28;20477;-71
2022/09/20 12:55:32;;;;;;;4.20;2.10;;;25.90;49.00;;;;;;5013768;28;20516;-71
2022/09/20 12:57:59;;;;;;;5.30;2.63;;;26.20;48.60;;;;;;5015008;28;20446;-71
2022/09/20 13:00:40;;;;;;;2.50;1.80;;;28.30;45.90;;;;;;5019571;28;20439;-71
2022/09/20 13:03:30;;;;;;;2.40;2.20;;;28.30;46.10;;;;;;5004097;28;20444;-70
2022/09/20 13:06:05;;;;;;;4.17;1.67;;;29.50;45.00;;;;;;5013353;28;20561;-68
2022/09/20 13:08:49;;;;;;;3.33;2.03;;;32.70;41.10;;;;;;5017608;28;20426;-71
2022/09/20 13:11:21;;;;;;;2.50;1.87;;;33.50;38.90;;;;;;5024443;28;20471;-71
2022/09/20 13:14:08;;;;;;;5.03;2.37;;;32.40;37.80;;;;;;5015233;28;20430;-71
2022/09/20 13:17:11;;;;;;;4.83;2.07;;;27.90;39.90;;;;;;5025075;28;20517;-73
2022/09/20 13:19:43;;;;;;;2.57;1.77;;;25.50;44.10;;;;;;5016396;28;20519;-70
2022/09/20 13:22:36;;;;;;;4.20;1.93;;;24.00;46.10;;;;;;5011627;28;20486;-72
2022/09/20 13:25:05;;;;;;;2.97;2.73;;;24.30;46.00;;;;;;5007344;28;20543;-72
2022/09/20 13:27:40;;;;;;;2.60;2.20;;;24.10;46.80;;;;;;5010132;28;20436;-72
2022/09/20 13:30:39;;;;;;;6.20;3.00;;;23.30;46.70;;;;;;5007073;28;20464;-72
2022/09/20 13:33:24;;;;;;;5.40;2.23;;;22.10;49.60;;;;;;5006345;28;20898;-72
2022/09/20 13:35:56;;;;;;;3.63;2.50;;;21.30;51.50;;;;;;5012156;28;20978;-72
2022/09/20 13:38:26;;;;;;;3.63;2.37;;;20.40;53.40;;;;;;5026252;28;20527;-72
2022/09/20 13:41:03;;;;;;;4.97;2.27;;;19.60;55.80;;;;;;5011755;28;20472;-72
2022/09/20 13:43:35;;;;;;;7.27;2.80;;;19.10;57.90;;;;;;5017261;28;20946;-71
2022/09/20 13:46:09;;;;;;;5.43;3.00;;;18.90;59.80;;;;;;5015015;28;20465;-71
2022/09/20 13:48:34;;;;;;;9.37;2.60;;;18.50;62.60;;;;;;5012880;28;20495;-72
2022/09/20 13:51:00;;;;;;;5.13;2.50;;;18.80;62.70;;;;;;5009803;28;20442;-72
2022/09/20 13:53:29;;;;;;;2.50;2.23;;;18.80;63.50;;;;;;5020427;28;20674;-71
2022/09/20 13:55:55;;;;;;;4.50;2.13;;;18.40;64.30;;;;;;5020157;28;20806;-72
2022/09/20 13:58:32;;;;;;;4.60;2.20;;;18.20;65.70;;;;;;5015440;28;20433;-72
2022/09/20 14:01:01;;;;;;;3.30;3.00;;;18.10;67.70;;;;;;5013805;28;20186;-71
2022/09/20 14:03:28;;;;;;;8.17;2.23;;;17.80;70.30;;;;;;5023816;28;20454;-72
2022/09/20 14:05:57;;;;;;;5.33;2.37;;;17.70;72.60;;;;;;5024077;28;20988;-72
2022/09/20 14:08:48;;;;;;;9.73;2.40;;;17.50;75.70;;;;;;5024325;28;20440;-72